Time;durP1;ratioP1;P1;durP2;ratioP2;P2;SDS_P1;SDS_P2;PMS_P1;PMS_P2;Temp;Humidity;BMP_temperature;BMP_pressure;BME280_temperature;BME280_humidity;BME280_pressure;Samples;Min_cycle;Max_cycle;Signal;HPM_P1;HPM_P2
2022/01/26 00:07:11;;;;;;;;;15.25;13.50;14.50;99.90;;;;;;5017612;28;11514;-46
2022/01/26 00:09:41;;;;;;;;;15.25;14.25;14.50;99.90;;;;;;5018294;28;11497;-54
2022/01/26 00:12:12;;;;;;;;;10.50;10.50;14.50;99.90;;;;;;5013128;28;11513;-53
2022/01/26 00:14:43;;;;;;;;;11.75;10.50;14.50;99.90;;;;;;5014598;28;11506;-46
2022/01/26 00:17:14;;;;;;;;;11.00;11.00;14.50;99.90;;;;;;5007942;28;11560;-46
2022/01/26 00:19:58;;;;;;;;;12.75;12.50;14.50;99.90;;;;;;5015552;28;11461;-46
2022/01/26 00:39:01;;;;;;;;;10.75;10.75;14.50;99.90;;;;;;5011522;28;11522;-45
2022/01/26 00:41:35;;;;;;;;;10.00;9.75;14.50;99.90;;;;;;5017994;28;11523;-46
2022/01/26 00:44:08;;;;;;;;;8.25;8.25;14.50;99.90;;;;;;5014780;28;12251;-49
2022/01/26 00:46:42;;;;;;;;;8.00;7.75;14.50;99.90;;;;;;5015199;28;11468;-47
2022/01/26 00:49:15;;;;;;;;;10.50;10.00;14.40;99.90;;;;;;5015661;28;11606;-46
2022/01/26 00:51:45;;;;;;;;;10.25;10.25;14.40;99.90;;;;;;5015385;28;11472;-49
2022/01/26 00:54:16;;;;;;;;;9.50;9.50;14.40;99.90;;;;;;5017319;28;11491;-51
2022/01/26 00:56:47;;;;;;;;;9.00;9.00;14.40;99.90;;;;;;5017006;28;12192;-46
2022/01/26 00:59:19;;;;;;;;;11.25;11.25;14.40;99.90;;;;;;5018145;28;11980;-45
2022/01/26 01:01:50;;;;;;;;;10.00;10.00;14.40;99.90;;;;;;5018680;28;12369;-47
2022/01/26 01:04:21;;;;;;;;;10.75;10.75;14.40;99.90;;;;;;5019836;28;11523;-47
2022/01/26 01:06:58;;;;;;;;;8.50;8.50;14.30;99.90;;;;;;5022238;28;11550;-48
2022/01/26 01:09:33;;;;;;;;;8.75;8.50;14.40;99.90;;;;;;5021128;28;11465;-48
2022/01/26 01:12:06;;;;;;;;;7.25;7.25;14.40;99.90;;;;;;5018325;28;11494;-46
2022/01/26 01:14:39;;;;;;;;;6.00;4.75;14.40;99.90;;;;;;5018899;28;11484;-51
2022/01/26 01:17:21;;;;;;;;;5.75;5.00;14.30;99.90;;;;;;5019938;28;11427;-47
2022/01/26 01:20:10;;;;;;;;;5.25;5.25;14.30;99.90;;;;;;5007553;28;11428;-46
2022/01/26 01:29:08;;;;;;;;;3.00;3.00;14.30;99.90;;;;;;5004476;28;11142;-45
2022/01/26 01:31:45;;;;;;;;;3.75;3.75;14.30;99.90;;;;;;5017451;28;11428;-46
2022/01/26 01:34:27;;;;;;;;;4.25;4.25;14.20;99.90;;;;;;5025705;28;11208;-50
2022/01/26 01:37:03;;;;;;;;;3.00;3.00;14.20;99.90;;;;;;5018617;28;11630;-49
2022/01/26 01:39:38;;;;;;;;;4.75;4.75;14.20;99.90;;;;;;5021534;28;11613;-46
2022/01/26 01:42:10;;;;;;;;;4.00;4.00;14.20;99.90;;;;;;5012043;28;11507;-47
2022/01/26 01:44:41;;;;;;;;;3.00;3.00;14.20;99.90;;;;;;5020838;28;11481;-48
2022/01/26 01:47:12;;;;;;;;;7.00;4.00;14.20;99.90;;;;;;5017958;28;11435;-49
2022/01/26 01:49:42;;;;;;;;;3.00;3.00;14.20;99.90;;;;;;5016971;28;11459;-47
2022/01/26 01:52:15;;;;;;;;;3.00;3.00;14.10;99.90;;;;;;5016726;28;11418;-47
2022/01/26 01:54:53;;;;;;;;;4.00;4.00;14.10;99.90;;;;;;5018791;28;11565;-45
2022/01/26 01:57:26;;;;;;;;;3.25;3.25;14.10;99.90;;;;;;5013178;28;11687;-46
2022/01/26 02:00:00;;;;;;;;;2.25;2.25;14.10;99.90;;;;;;5018827;28;11430;-48
2022/01/26 02:02:33;;;;;;;;;3.00;3.00;14.10;99.90;;;;;;5023760;28;11514;-45
2022/01/26 02:05:04;;;;;;;;;4.75;3.00;14.00;99.90;;;;;;5016556;28;11455;-49
2022/01/26 02:07:36;;;;;;;;;4.75;4.75;14.00;99.90;;;;;;5017226;28;11433;-49
2022/01/26 02:10:06;;;;;;;;;4.00;4.00;14.00;99.90;;;;;;5019005;28;11508;-51
2022/01/26 02:12:42;;;;;;;;;4.25;4.25;13.90;99.90;;;;;;5006197;28;11450;-50
2022/01/26 02:15:19;;;;;;;;;3.50;3.50;13.90;99.90;;;;;;5015576;28;11432;-50
2022/01/26 02:18:38;;;;;;;;;3.75;3.75;13.90;99.90;;;;;;5015907;28;11631;-48
2022/01/26 02:49:37;;;;;;;;;1.00;1.00;13.80;99.90;;;;;;5016831;28;11439;-47
2022/01/26 02:57:43;;;;;;;;;6.75;5.00;13.70;99.90;;;;;;5017456;28;11450;-47
2022/01/26 03:00:21;;;;;;;;;3.00;3.00;13.70;99.90;;;;;;5019409;28;11476;-51
2022/01/26 03:03:10;;;;;;;;;5.50;5.50;13.70;99.90;;;;;;5019064;28;11398;-52
2022/01/26 03:05:51;;;;;;;;;3.00;3.00;13.70;99.90;;;;;;5016489;28;11447;-48
2022/01/26 03:08:37;;;;;;;;;4.75;3.75;13.60;99.90;;;;;;5016644;28;11455;-45
2022/01/26 03:11:13;;;;;;;;;3.75;3.75;13.60;99.90;;;;;;5016389;28;11472;-49
2022/01/26 03:13:56;;;;;;;;;3.00;3.00;13.60;99.90;;;;;;5018852;28;11580;-48
2022/01/26 03:16:33;;;;;;;;;4.50;4.50;13.60;99.90;;;;;;5019276;28;11435;-49
2022/01/26 03:19:24;;;;;;;;;3.00;3.00;13.60;99.90;;;;;;5019169;28;11418;-49
2022/01/26 03:38:20;;;;;;;;;5.00;5.00;13.50;99.90;;;;;;5019794;28;12254;-45
2022/01/26 03:41:28;;;;;;;;;2.50;2.50;13.40;99.90;;;;;;5015443;28;11637;-50
2022/01/26 03:43:59;;;;;;;;;5.00;5.00;13.40;99.90;;;;;;5018595;28;11500;-47
2022/01/26 03:46:32;;;;;;;;;7.00;5.25;13.40;99.90;;;;;;5017532;28;12173;-50
2022/01/26 03:49:03;;;;;;;;;5.00;5.00;13.40;99.90;;;;;;5018887;28;11383;-50
2022/01/26 03:51:35;;;;;;;;;4.00;4.00;13.30;99.90;;;;;;5019025;28;11481;-46
2022/01/26 03:54:06;;;;;;;;;5.00;5.00;13.40;99.90;;;;;;5015838;28;11440;-50
2022/01/26 03:56:37;;;;;;;;;4.25;3.00;13.30;99.90;;;;;;5017422;28;11415;-50
2022/01/26 03:59:08;;;;;;;;;3.50;3.50;13.30;99.90;;;;;;5001087;28;11428;-47
2022/01/26 04:01:40;;;;;;;;;7.75;6.75;13.30;99.90;;;;;;5017139;28;11674;-47
2022/01/26 04:04:14;;;;;;;;;7.00;7.00;13.30;99.90;;;;;;5016506;28;11459;-49
2022/01/26 04:06:45;;;;;;;;;3.00;3.00;13.30;99.90;;;;;;5018364;28;11461;-49
2022/01/26 04:09:17;;;;;;;;;5.50;5.00;13.30;99.90;;;;;;5016831;28;11461;-51
2022/01/26 04:11:50;;;;;;;;;6.75;4.50;13.20;99.90;;;;;;5015743;28;11518;-49
2022/01/26 04:14:25;;;;;;;;;4.00;4.00;13.20;99.90;;;;;;5014642;28;11581;-48
2022/01/26 04:16:57;;;;;;;;;6.25;6.25;13.20;99.90;;;;;;5011786;28;12162;-52
2022/01/26 04:19:31;;;;;;;;;8.00;8.00;13.10;99.90;;;;;;5012143;28;11560;-48
2022/01/26 04:22:49;;;;;;;;;4.75;4.75;13.10;99.90;;;;;;5015176;28;11533;-51
2022/01/26 04:24:59;;;;;;;;;9.50;9.00;13.10;99.90;;;;;;5014557;28;11603;-50
2022/01/26 04:27:43;;;;;;;;;10.00;8.50;13.00;99.90;;;;;;5016141;28;11506;-47
2022/01/26 04:30:14;;;;;;;;;10.50;9.00;13.00;99.90;;;;;;5017499;28;11609;-50
2022/01/26 04:32:46;;;;;;;;;21.00;21.00;13.00;99.90;;;;;;5011332;28;12249;-51
2022/01/26 04:35:16;;;;;;;;;31.25;31.25;13.00;99.90;;;;;;5016280;28;11553;-47
2022/01/26 04:40:43;;;;;;;;;16.75;15.00;12.90;99.90;;;;;;5017668;28;11613;-48
2022/01/26 04:43:19;;;;;;;;;8.50;8.50;12.90;99.90;;;;;;5013916;28;11526;-47
2022/01/26 04:45:50;;;;;;;;;15.00;15.00;12.80;99.90;;;;;;5015163;28;11587;-47
2022/01/26 04:48:21;;;;;;;;;12.75;12.00;12.80;99.90;;;;;;5018796;28;11564;-48
2022/01/26 04:50:52;;;;;;;;;13.00;12.25;12.80;99.90;;;;;;5017962;28;11557;-50
2022/01/26 04:53:23;;;;;;;;;13.50;13.50;12.80;99.90;;;;;;5018640;28;11588;-49
2022/01/26 04:55:53;;;;;;;;;10.25;10.25;12.70;99.90;;;;;;5017061;28;11563;-50
2022/01/26 04:58:24;;;;;;;;;13.75;13.75;12.70;99.90;;;;;;5018421;28;11469;-49
2022/01/26 05:00:54;;;;;;;;;12.25;12.25;12.60;99.90;;;;;;5014688;28;11565;-50
2022/01/26 05:03:25;;;;;;;;;9.50;8.25;12.60;99.90;;;;;;5019191;28;11517;-45
2022/01/26 05:05:55;;;;;;;;;8.50;8.50;12.60;99.90;;;;;;5013910;28;11558;-47
2022/01/26 05:08:26;;;;;;;;;8.00;7.00;12.60;99.90;;;;;;5017792;28;11624;-49
2022/01/26 05:10:56;;;;;;;;;8.75;8.75;12.60;99.90;;;;;;5016571;28;11508;-51
2022/01/26 05:13:38;;;;;;;;;7.00;7.00;12.50;99.90;;;;;;5015010;28;11473;-49
2022/01/26 05:16:10;;;;;;;;;10.00;10.00;12.50;99.90;;;;;;5016441;28;11512;-46
2022/01/26 05:18:42;;;;;;;;;8.00;8.00;12.50;99.90;;;;;;4995703;28;11597;-51
2022/01/26 05:21:12;;;;;;;;;10.50;10.50;12.40;99.90;;;;;;4996354;28;11906;-47
2022/01/26 05:23:44;;;;;;;;;8.00;8.00;12.40;99.90;;;;;;4999323;28;11649;-49
2022/01/26 05:26:13;;;;;;;;;12.25;12.25;12.40;99.90;;;;;;4996049;28;11594;-47
2022/01/26 05:28:46;;;;;;;;;13.00;13.00;12.40;99.90;;;;;;4996680;28;11564;-46
2022/01/26 05:31:17;;;;;;;;;14.00;14.00;12.40;99.90;;;;;;4997433;28;11567;-49
2022/01/26 05:33:48;;;;;;;;;10.00;8.75;12.30;99.90;;;;;;4998441;28;11680;-51
2022/01/26 05:36:18;;;;;;;;;13.50;13.00;12.30;99.90;;;;;;4997578;28;11584;-51
2022/01/26 05:38:50;;;;;;;;;15.00;13.25;12.30;99.90;;;;;;4996973;28;11558;-49
2022/01/26 05:41:22;;;;;;;;;14.00;13.50;12.30;99.90;;;;;;4996097;28;11594;-49
2022/01/26 05:43:53;;;;;;;;;12.25;10.50;12.20;99.90;;;;;;4997829;28;11691;-49
2022/01/26 05:46:34;;;;;;;;;9.75;9.75;12.20;99.90;;;;;;5000411;28;11575;-51
2022/01/26 05:49:04;;;;;;;;;15.50;14.50;12.10;99.90;;;;;;5001464;28;12247;-50
2022/01/26 05:51:35;;;;;;;;;20.00;20.00;12.10;99.90;;;;;;5004336;28;11719;-52
2022/01/26 05:54:07;;;;;;;;;19.67;17.33;12.10;99.90;;;;;;5001382;28;11649;-49
2022/01/26 05:56:42;;;;;;;;;16.00;16.00;12.10;99.90;;;;;;5000979;28;8959;-49
2022/01/26 05:59:12;;;;;;;;;21.00;21.00;12.10;99.90;;;;;;4999114;28;11592;-49
2022/01/26 06:01:42;;;;;;;;;25.67;25.67;12.00;99.90;;;;;;5004045;28;8974;-47
2022/01/26 06:04:14;;;;;;;;;27.67;27.67;12.00;99.90;;;;;;4997174;28;8836;-50
2022/01/26 06:06:46;;;;;;;;;17.67;17.67;11.80;99.90;;;;;;5001391;28;8858;-47
2022/01/26 06:09:17;;;;;;;;;29.33;29.33;11.80;99.90;;;;;;4999747;28;8871;-50
2022/01/26 06:11:47;;;;;;;;;26.67;26.67;11.90;99.90;;;;;;5000226;28;8856;-53
2022/01/26 06:14:18;;;;;;;;;27.00;26.00;11.90;99.90;;;;;;4998291;28;8930;-49
2022/01/26 06:16:50;;;;;;;;;25.50;23.75;11.80;99.90;;;;;;5001629;28;8885;-50
2022/01/26 06:19:20;;;;;;;;;34.25;33.25;11.80;99.90;;;;;;5020528;28;11562;-49
2022/01/26 06:21:50;;;;;;;;;34.67;33.67;11.80;99.90;;;;;;5018525;28;11681;-51
2022/01/26 06:24:22;;;;;;;;;29.25;29.25;11.80;99.90;;;;;;5018258;28;8837;-47
2022/01/26 06:26:53;;;;;;;;;25.25;25.25;11.80;99.90;;;;;;5012200;28;11526;-50
2022/01/26 06:29:23;;;;;;;;;38.33;34.33;11.70;99.90;;;;;;5018343;28;11531;-48
2022/01/26 06:31:54;;;;;;;;;43.00;39.00;11.60;99.90;;;;;;5017335;28;11559;-49
2022/01/26 06:34:24;;;;;;;;;30.33;30.33;11.50;99.90;;;;;;5021118;28;8877;-48
2022/01/26 06:36:55;;;;;;;;;33.75;33.00;11.50;99.90;;;;;;5017438;28;11546;-50
2022/01/26 06:39:26;;;;;;;;;27.25;27.25;11.50;99.90;;;;;;5020329;28;12306;-51
2022/01/26 06:41:57;;;;;;;;;26.25;25.50;11.50;99.90;;;;;;5018402;28;11592;-54
2022/01/26 06:44:33;;;;;;;;;21.25;19.25;11.50;99.90;;;;;;5021515;28;11553;-52
2022/01/26 06:49:55;;;;;;;;;26.25;26.25;11.50;99.90;;;;;;4979421;28;11679;-51
2022/01/26 06:52:26;;;;;;;;;21.00;21.00;11.40;99.90;;;;;;5019329;28;11695;-50
2022/01/26 06:54:56;;;;;;;;;18.50;18.50;11.30;99.90;;;;;;5017414;28;12374;-50
2022/01/26 06:57:27;;;;;;;;;25.00;25.00;11.30;99.90;;;;;;5017410;28;11513;-49
2022/01/26 06:59:58;;;;;;;;;20.25;18.25;11.30;99.90;;;;;;5018617;28;11548;-47
2022/01/26 07:02:29;;;;;;;;;16.00;16.00;11.30;99.90;;;;;;5019473;28;11673;-48
2022/01/26 07:04:59;;;;;;;;;19.00;16.75;11.30;99.90;;;;;;4987390;28;11565;-46
2022/01/26 07:07:30;;;;;;;;;30.50;26.25;11.30;99.90;;;;;;5019541;28;11550;-46
2022/01/26 07:10:02;;;;;;;;;31.00;31.00;11.20;99.90;;;;;;5018775;28;11613;-47
2022/01/26 07:12:34;;;;;;;;;37.00;33.00;11.20;99.90;;;;;;5017307;28;11554;-50
2022/01/26 07:23:31;;;;;;;;;39.00;33.33;11.10;99.90;;;;;;5018692;28;12286;-50
2022/01/26 07:26:03;;;;;;;;;27.50;27.25;11.10;99.90;;;;;;5016467;28;11577;-49
2022/01/26 07:28:38;;;;;;;;;22.00;22.00;11.10;99.90;;;;;;5017257;28;11506;-47
2022/01/26 07:31:11;;;;;;;;;25.25;25.25;11.00;99.90;;;;;;5019147;28;11524;-51
2022/01/26 07:33:42;;;;;;;;;12.25;12.25;11.00;99.90;;;;;;5019569;28;11551;-46
2022/01/26 07:36:13;;;;;;;;;20.75;20.75;10.90;99.90;;;;;;5019598;28;11531;-51
2022/01/26 07:38:43;;;;;;;;;24.75;23.75;10.90;99.90;;;;;;5017467;28;12268;-49
2022/01/26 07:41:14;;;;;;;;;21.50;21.50;10.90;99.90;;;;;;5019763;28;11578;-49
2022/01/26 07:43:45;;;;;;;;;19.25;17.25;10.80;99.90;;;;;;5017196;28;13013;-53
2022/01/26 07:46:17;;;;;;;;;17.50;16.00;10.80;99.90;;;;;;5018781;28;11701;-51
2022/01/26 07:48:48;;;;;;;;;14.50;14.50;10.70;99.90;;;;;;5017191;28;11770;-50
2022/01/26 07:51:17;;;;;;;;;15.00;15.00;10.80;99.90;;;;;;5019924;28;11560;-50
2022/01/26 07:53:49;;;;;;;;;19.50;19.00;10.80;99.90;;;;;;5017829;28;11689;-50
2022/01/26 07:56:21;;;;;;;;;15.50;14.75;10.80;99.90;;;;;;5017162;28;11548;-49
2022/01/26 07:58:52;;;;;;;;;20.00;20.00;10.70;99.90;;;;;;5020984;28;11511;-52
2022/01/26 08:01:23;;;;;;;;;18.00;18.00;10.60;99.90;;;;;;5017975;28;11577;-51
2022/01/26 08:03:55;;;;;;;;;20.25;18.75;10.60;99.90;;;;;;5017549;28;11694;-51
2022/01/26 08:06:25;;;;;;;;;18.00;17.00;10.60;99.90;;;;;;5019358;28;11562;-51
2022/01/26 08:08:56;;;;;;;;;17.25;17.25;10.60;99.90;;;;;;5017565;28;11709;-47
2022/01/26 08:11:27;;;;;;;;;18.25;18.25;10.60;99.90;;;;;;5014871;28;11615;-50
2022/01/26 08:13:58;;;;;;;;;20.00;18.50;10.60;99.90;;;;;;5017180;28;12115;-49
2022/01/26 08:16:29;;;;;;;;;18.00;18.00;10.60;99.90;;;;;;5019366;28;11598;-53
2022/01/26 08:18:59;;;;;;;;;18.75;17.25;10.60;99.90;;;;;;5017383;28;11585;-51
2022/01/26 08:21:29;;;;;;;;;17.00;15.00;10.50;99.90;;;;;;5015400;28;11557;-48
2022/01/26 08:24:12;;;;;;;;;17.75;15.25;10.50;99.90;;;;;;5013839;28;12312;-47
2022/01/26 08:26:49;;;;;;;;;18.50;18.50;10.40;99.90;;;;;;5017601;28;12320;-48
2022/01/26 08:29:27;;;;;;;;;14.00;14.00;10.40;99.90;;;;;;5012804;28;11579;-51
2022/01/26 08:31:57;;;;;;;;;18.75;17.50;10.40;99.90;;;;;;5016255;28;11541;-46
2022/01/26 08:34:28;;;;;;;;;19.00;19.00;10.40;99.90;;;;;;5016196;28;11542;-50
2022/01/26 08:36:59;;;;;;;;;18.25;16.50;10.40;99.90;;;;;;5016845;28;11582;-49
2022/01/26 08:39:32;;;;;;;;;18.00;18.00;10.40;99.90;;;;;;5019100;28;11536;-47
2022/01/26 08:42:08;;;;;;;;;19.00;17.00;10.40;99.90;;;;;;5012663;28;11510;-48
2022/01/26 08:44:39;;;;;;;;;19.00;19.00;10.30;99.90;;;;;;5018264;28;11583;-49
2022/01/26 08:47:10;;;;;;;;;17.25;17.25;10.30;99.90;;;;;;5015912;28;12286;-50
2022/01/26 08:49:42;;;;;;;;;21.75;21.75;10.30;99.90;;;;;;5015995;28;11537;-50
2022/01/26 08:52:12;;;;;;;;;18.25;18.25;10.20;99.90;;;;;;5015226;28;11529;-50
2022/01/26 08:54:43;;;;;;;;;23.00;21.00;10.20;99.90;;;;;;5016976;28;11536;-51
2022/01/26 08:57:14;;;;;;;;;25.75;24.25;10.20;99.90;;;;;;5015980;28;11534;-47
2022/01/26 08:59:47;;;;;;;;;18.50;18.50;10.20;99.90;;;;;;5019275;28;11548;-51
2022/01/26 09:02:18;;;;;;;;;19.00;19.00;10.20;99.90;;;;;;5015915;28;11669;-47
2022/01/26 09:04:49;;;;;;;;;20.00;18.75;10.10;99.90;;;;;;5016212;28;12324;-50
2022/01/26 09:07:20;;;;;;;;;14.50;14.50;10.10;99.90;;;;;;4998701;28;11528;-47
2022/01/26 09:09:54;;;;;;;;;13.50;13.50;10.10;99.90;;;;;;5017166;28;11522;-49
2022/01/26 09:12:26;;;;;;;;;17.00;17.00;10.00;99.90;;;;;;5014379;28;12268;-47
2022/01/26 09:14:59;;;;;;;;;16.75;13.75;10.10;99.90;;;;;;5015139;28;11686;-46
2022/01/26 09:17:32;;;;;;;;;18.25;16.75;10.00;99.90;;;;;;5013158;28;11534;-52
2022/01/26 09:20:06;;;;;;;;;13.00;13.00;10.00;99.90;;;;;;5023161;28;11542;-46
2022/01/26 09:22:36;;;;;;;;;12.00;12.00;10.00;99.90;;;;;;5012960;28;11560;-45
2022/01/26 09:25:07;;;;;;;;;17.25;17.25;10.00;99.90;;;;;;5023392;28;11678;-49
2022/01/26 09:27:39;;;;;;;;;12.00;12.00;9.90;99.90;;;;;;5017449;28;11559;-47
2022/01/26 09:30:11;;;;;;;;;13.50;13.50;9.90;99.90;;;;;;5006629;28;11550;-48
2022/01/26 09:32:42;;;;;;;;;14.00;13.25;9.90;99.90;;;;;;5022181;28;11508;-49
2022/01/26 09:35:13;;;;;;;;;14.00;12.25;10.00;99.90;;;;;;5019448;28;11577;-49
2022/01/26 09:37:44;;;;;;;;;16.00;14.25;10.00;99.90;;;;;;5014959;28;11832;-50
2022/01/26 09:40:15;;;;;;;;;16.75;16.75;10.00;99.90;;;;;;5020024;28;11524;-46
2022/01/26 09:42:49;;;;;;;;;14.75;12.50;10.00;99.90;;;;;;5018742;28;11553;-49
2022/01/26 09:45:19;;;;;;;;;17.75;17.75;10.00;99.90;;;;;;5022789;28;11669;-51
2022/01/26 09:47:50;;;;;;;;;18.00;17.25;10.00;99.90;;;;;;5021211;28;11534;-49
2022/01/26 09:50:33;;;;;;;;;16.50;16.50;10.00;99.90;;;;;;5024930;28;12640;-47
2022/01/26 09:53:04;;;;;;;;;18.00;18.00;10.00;99.90;;;;;;5016339;28;11556;-50
2022/01/26 09:55:34;;;;;;;;;17.50;17.25;10.00;99.90;;;;;;5016529;28;11542;-46
2022/01/26 09:58:09;;;;;;;;;15.25;15.25;9.90;99.90;;;;;;5021013;28;12362;-47
2022/01/26 10:00:39;;;;;;;;;19.50;19.50;9.90;99.90;;;;;;5018433;28;11665;-48
2022/01/26 10:03:10;;;;;;;;;21.00;19.50;10.00;99.90;;;;;;5021755;28;11517;-50
2022/01/26 10:05:49;;;;;;;;;18.50;18.50;10.00;99.90;;;;;;5017317;28;11552;-51
2022/01/26 10:19:33;;;;;;;;;15.00;15.00;10.00;99.90;;;;;;5020701;28;11508;-48
2022/01/26 10:22:04;;;;;;;;;14.00;14.00;9.90;99.90;;;;;;5020555;28;11514;-48
2022/01/26 10:24:34;;;;;;;;;15.00;15.00;9.90;99.90;;;;;;5019903;28;11533;-49
2022/01/26 10:27:05;;;;;;;;;17.00;15.75;9.90;99.90;;;;;;5020080;28;12287;-46
2022/01/26 10:29:36;;;;;;;;;15.50;15.50;9.90;99.90;;;;;;5017819;28;11540;-49
2022/01/26 10:32:13;;;;;;;;;15.75;15.75;9.90;99.90;;;;;;5016776;28;11708;-46
2022/01/26 10:34:44;;;;;;;;;13.75;13.75;9.90;99.90;;;;;;5017090;28;11565;-48
2022/01/26 10:37:14;;;;;;;;;15.75;15.75;9.90;99.90;;;;;;5017567;28;11747;-51
2022/01/26 10:39:50;;;;;;;;;18.50;18.50;9.90;99.90;;;;;;5018731;28;11577;-48
2022/01/26 10:42:23;;;;;;;;;15.25;15.25;9.90;99.90;;;;;;5019548;28;11525;-50
2022/01/26 10:45:09;;;;;;;;;12.75;12.75;9.90;99.90;;;;;;5019471;28;11926;-47
2022/01/26 10:47:45;;;;;;;;;17.25;16.50;9.90;99.90;;;;;;5018891;28;11501;-46
2022/01/26 10:53:10;;;;;;;;;12.75;12.75;9.90;99.90;;;;;;5021579;28;11574;-49
2022/01/26 10:55:41;;;;;;;;;12.25;12.25;9.90;99.90;;;;;;5017833;28;12253;-51
2022/01/26 10:58:16;;;;;;;;;15.00;15.00;9.90;99.90;;;;;;5020556;28;11518;-49
2022/01/26 11:00:47;;;;;;;;;17.00;17.00;9.90;99.90;;;;;;5018573;28;11570;-49
2022/01/26 11:03:17;;;;;;;;;17.75;17.75;9.90;99.90;;;;;;5019753;28;12318;-49
2022/01/26 11:05:49;;;;;;;;;14.50;13.50;9.90;99.90;;;;;;5019230;28;11592;-49
2022/01/26 11:08:25;;;;;;;;;14.50;13.00;9.90;99.90;;;;;;4985085;28;11563;-49
2022/01/26 11:10:56;;;;;;;;;13.25;12.25;9.90;99.90;;;;;;5012563;28;11477;-51
2022/01/26 11:13:44;;;;;;;;;15.75;15.75;9.90;99.90;;;;;;5017299;28;11585;-51
2022/01/26 11:16:18;;;;;;;;;17.00;17.00;9.90;99.90;;;;;;5012575;28;11511;-47
2022/01/26 11:19:00;;;;;;;;;14.75;14.75;9.90;99.90;;;;;;5019886;28;11549;-47
2022/01/26 11:21:36;;;;;;;;;16.25;16.25;10.00;99.90;;;;;;5017375;28;12218;-52
2022/01/26 11:24:07;;;;;;;;;14.50;14.50;10.00;99.90;;;;;;4997988;28;11561;-50
2022/01/26 11:26:41;;;;;;;;;16.75;16.75;10.00;99.90;;;;;;5018841;28;12063;-50
2022/01/26 11:29:25;;;;;;;;;11.75;11.75;10.00;99.90;;;;;;5018142;28;11537;-49
2022/01/26 11:32:14;;;;;;;;;5.25;5.25;10.00;99.90;;;;;;5002213;28;11523;-50
2022/01/26 11:34:47;;;;;;;;;18.50;18.50;10.00;99.90;;;;;;5006243;28;11526;-46
2022/01/26 11:37:24;;;;;;;;;13.00;13.00;10.00;99.90;;;;;;5019214;28;11596;-47
2022/01/26 11:45:28;;;;;;;;;18.00;18.00;10.00;99.90;;;;;;5018487;28;11575;-51
2022/01/26 11:48:19;;;;;;;;;18.00;18.00;10.00;99.90;;;;;;5017751;28;11620;-46
2022/01/26 11:50:58;;;;;;;;;21.25;21.00;10.00;99.90;;;;;;5018526;28;11701;-50
2022/01/26 11:53:29;;;;;;;;;19.50;18.50;10.10;99.90;;;;;;5016877;28;11726;-49
2022/01/26 11:56:13;;;;;;;;;20.50;20.50;10.10;99.90;;;;;;4976640;28;11685;-47
2022/01/26 11:58:46;;;;;;;;;29.75;29.75;10.10;99.90;;;;;;5018392;28;11713;-49
2022/01/26 12:01:23;;;;;;;;;33.25;32.00;10.10;99.90;;;;;;5018501;28;11545;-51
2022/01/26 12:04:06;;;;;;;;;31.00;26.00;10.10;99.90;;;;;;5017199;28;11539;-46
2022/01/26 12:06:49;;;;;;;;;30.00;29.50;10.10;99.90;;;;;;5018166;28;11590;-49
2022/01/26 12:09:20;;;;;;;;;31.75;29.75;10.00;99.90;;;;;;5018522;28;11643;-49
2022/01/26 12:11:55;;;;;;;;;33.00;32.50;10.20;99.90;;;;;;5015898;28;12337;-47
2022/01/26 12:14:26;;;;;;;;;32.75;32.50;10.20;99.90;;;;;;5002443;28;11643;-47
2022/01/26 12:16:59;;;;;;;;;32.50;32.50;10.20;99.90;;;;;;5016316;28;11549;-48
2022/01/26 12:19:52;;;;;;;;;28.50;27.25;10.20;99.90;;;;;;5019051;28;11577;-46
2022/01/26 12:36:25;;;;;;;;;30.00;30.00;10.20;99.90;;;;;;5017210;28;11731;-50
2022/01/26 12:39:01;;;;;;;;;31.25;31.00;10.20;99.90;;;;;;5013664;28;11544;-47
2022/01/26 12:41:34;;;;;;;;;27.25;26.00;10.20;99.90;;;;;;5018368;28;11550;-49
2022/01/26 12:44:10;;;;;;;;;27.00;27.00;10.20;99.90;;;;;;5016069;28;11547;-50
2022/01/26 12:46:41;;;;;;;;;23.50;23.50;10.20;99.90;;;;;;5018964;28;11673;-51
2022/01/26 12:49:20;;;;;;;;;31.75;29.00;10.20;99.90;;;;;;4999966;28;11570;-51
2022/01/26 12:51:54;;;;;;;;;29.75;29.75;10.30;99.90;;;;;;5023321;28;11550;-48
2022/01/26 12:54:26;;;;;;;;;30.50;29.75;10.30;99.90;;;;;;5013547;28;11807;-49
2022/01/26 12:57:06;;;;;;;;;29.50;29.00;10.30;99.90;;;;;;5019804;28;11710;-47
2022/01/26 12:59:36;;;;;;;;;28.25;26.00;10.20;99.90;;;;;;5010821;28;11618;-47
2022/01/26 13:02:06;;;;;;;;;30.00;29.00;10.20;99.90;;;;;;5022127;28;11552;-51
2022/01/26 13:04:37;;;;;;;;;28.00;27.75;10.20;99.90;;;;;;5021488;28;11684;-47
2022/01/26 13:07:17;;;;;;;;;27.50;27.50;10.30;99.90;;;;;;5020908;28;12535;-51
2022/01/26 13:09:48;;;;;;;;;30.00;26.50;10.20;99.90;;;;;;5016108;28;11730;-50
2022/01/26 13:12:32;;;;;;;;;31.00;29.00;10.30;99.90;;;;;;5022143;28;11542;-50
2022/01/26 13:15:17;;;;;;;;;23.50;23.50;10.30;99.90;;;;;;5019668;28;11526;-50
2022/01/26 13:18:07;;;;;;;;;32.75;29.00;10.30;99.90;;;;;;5018624;28;11646;-48
2022/01/26 13:20:53;;;;;;;;;21.50;21.25;10.30;99.90;;;;;;5022855;28;11561;-48
2022/01/26 13:23:36;;;;;;;;;22.75;22.75;10.30;99.90;;;;;;5017156;28;11512;-48
2022/01/26 13:26:26;;;;;;;;;25.50;23.50;10.30;99.90;;;;;;5021128;28;12276;-49
2022/01/26 13:29:26;;;;;;;;;32.00;29.75;10.30;99.90;;;;;;5019582;28;11504;-50
2022/01/26 13:32:42;;;;;;;;;27.50;27.50;10.30;99.90;;;;;;5020078;28;11598;-47
2022/01/26 13:35:59;;;;;;;;;27.50;27.50;10.30;99.90;;;;;;5020691;28;11567;-52
2022/01/26 13:44:05;;;;;;;;;18.50;17.75;10.30;99.90;;;;;;5025315;28;11589;-49
2022/01/26 13:49:32;;;;;;;;;15.00;15.00;10.20;99.90;;;;;;5018473;28;11728;-51
2022/01/26 13:55:04;;;;;;;;;15.75;15.75;10.20;99.90;;;;;;5017930;28;11552;-48
2022/01/26 13:57:46;;;;;;;;;21.50;20.25;10.20;99.90;;;;;;5021132;28;11573;-46
2022/01/26 14:00:21;;;;;;;;;19.00;19.00;10.20;99.90;;;;;;5019510;28;11558;-47
2022/01/26 14:02:57;;;;;;;;;20.50;20.50;10.20;99.90;;;;;;5020184;28;13905;-47
2022/01/26 14:05:28;;;;;;;;;23.00;23.00;10.20;99.90;;;;;;5017388;28;11577;-49
2022/01/26 14:07:58;;;;;;;;;25.25;25.00;10.20;99.90;;;;;;5016213;28;11546;-47
2022/01/26 14:10:29;;;;;;;;;26.50;24.50;10.20;99.90;;;;;;5002804;28;11607;-45
2022/01/26 14:13:01;;;;;;;;;8.75;8.75;10.20;99.90;;;;;;5021693;28;12635;-49
2022/01/26 14:15:42;;;;;;;;;20.50;20.50;10.20;99.90;;;;;;5019572;28;11518;-47
2022/01/26 14:21:25;;;;;;;;;28.00;28.00;10.10;99.90;;;;;;5021009;28;12323;-48
2022/01/26 14:26:31;;;;;;;;;28.25;26.50;10.10;99.90;;;;;;5019441;28;12300;-47
2022/01/26 14:29:06;;;;;;;;;24.25;24.25;10.10;99.90;;;;;;5019679;28;11611;-46
2022/01/26 14:32:01;;;;;;;;;30.50;30.50;10.10;99.90;;;;;;5020059;28;11558;-47
2022/01/26 15:11:42;;;;;;;;;31.75;28.75;10.00;99.90;;;;;;5006757;28;11546;-51
2022/01/26 15:30:39;;;;;;;;;29.75;28.75;10.00;99.90;;;;;;5001352;28;12331;-47
2022/01/26 15:33:38;;;;;;;;;25.00;24.75;9.90;99.90;;;;;;5016574;28;11579;-51
2022/01/26 15:50:37;;;;;;;;;23.00;23.00;10.00;99.90;;;;;;5015082;28;11576;-48
2022/01/26 16:04:32;;;;;;;;;27.50;27.50;10.00;99.90;;;;;;5070620;28;11553;-49
2022/01/26 16:38:00;;;;;;;;;25.75;25.75;10.00;99.90;;;;;;5081692;28;11586;-51
2022/01/26 17:03:00;;;;;;;;;25.75;25.75;10.10;99.90;;;;;;5078774;28;11598;-50
2022/01/26 17:48:03;;;;;;;;;33.25;30.25;10.20;99.90;;;;;;5060969;28;12316;-50
2022/01/26 18:13:16;;;;;;;;;23.50;22.25;10.40;99.90;;;;;;5056726;28;11649;-51
2022/01/26 18:15:55;;;;;;;;;27.00;26.25;10.40;99.90;;;;;;5057366;28;11603;-49
2022/01/26 18:27:03;;;;;;;;;27.50;24.75;10.40;99.90;;;;;;5062536;28;12302;-49
2022/01/26 18:32:29;;;;;;;;;24.50;24.50;10.50;99.90;;;;;;5059335;28;11593;-50
2022/01/26 18:40:53;;;;;;;;;34.00;33.00;10.60;99.90;;;;;;5053782;28;8990;-46
2022/01/26 18:49:13;;;;;;;;;41.00;37.00;10.60;99.90;;;;;;5057423;28;9179;-49
2022/01/26 18:51:49;;;;;;;;;31.00;29.67;10.70;99.90;;;;;;5059881;28;11624;-50
2022/01/26 18:54:24;;;;;;;;;25.00;25.00;10.70;99.90;;;;;;5060317;28;11681;-49
2022/01/26 18:56:57;;;;;;;;;25.00;21.75;10.70;99.90;;;;;;5055930;28;11657;-51
2022/01/26 18:59:29;;;;;;;;;18.00;16.75;10.80;99.90;;;;;;5054755;28;11581;-49
2022/01/26 19:02:00;;;;;;;;;18.50;18.50;10.80;99.90;;;;;;5058460;28;11535;-50
2022/01/26 19:04:44;;;;;;;;;21.50;20.25;10.80;99.90;;;;;;5063186;28;11609;-46
2022/01/26 19:07:16;;;;;;;;;15.75;15.75;10.80;99.90;;;;;;5055367;28;11605;-49
2022/01/26 19:09:50;;;;;;;;;13.25;13.25;10.90;99.90;;;;;;5051166;28;11520;-49
2022/01/26 19:12:23;;;;;;;;;18.00;18.00;10.90;99.90;;;;;;5053399;28;11700;-48
2022/01/26 19:14:59;;;;;;;;;19.00;16.00;10.90;99.90;;;;;;5053785;28;11559;-51